sensor_id;sensor_type;location;lat;lon;timestamp;pressure;altitude;pressure_sealevel;temperature;humidity
56270;BME280;42176;43.240;27.880;2022-09-09T00:00:14;100410.44;;;18.27;82.11
56270;BME280;42176;43.240;27.880;2022-09-09T00:07:55;100407.41;;;18.16;82.48
56270;BME280;42176;43.240;27.880;2022-09-09T00:10:38;100413.81;;;18.13;83.01
56270;BME280;42176;43.240;27.880;2022-09-09T00:16:17;100402.34;;;18.09;82.57
56270;BME280;42176;43.240;27.880;2022-09-09T00:24:44;100385.09;;;17.96;83.78
56270;BME280;42176;43.240;27.880;2022-09-09T00:32:30;100386.81;;;17.97;83.75
56270;BME280;42176;43.240;27.880;2022-09-09T00:35:23;100392.19;;;17.97;83.43
56270;BME280;42176;43.240;27.880;2022-09-09T00:37:53;100391.34;;;17.96;83.40
56270;BME280;42176;43.240;27.880;2022-09-09T00:40:32;100389.78;;;17.91;83.54
56270;BME280;42176;43.240;27.880;2022-09-09T00:43:24;100396.13;;;17.90;84.04
56270;BME280;42176;43.240;27.880;2022-09-09T00:48:16;100392.94;;;17.81;84.07
56270;BME280;42176;43.240;27.880;2022-09-09T00:50:55;100388.88;;;17.73;84.55
56270;BME280;42176;43.240;27.880;2022-09-09T00:56:12;100330.66;;;17.38;84.78
56270;BME280;42176;43.240;27.880;2022-09-09T00:58:42;100374.25;;;17.61;85.58
56270;BME280;42176;43.240;27.880;2022-09-09T01:01:12;100375.28;;;17.58;85.23
56270;BME280;42176;43.240;27.880;2022-09-09T01:06:46;100375.34;;;17.57;85.82
56270;BME280;42176;43.240;27.880;2022-09-09T01:12:07;100373.22;;;17.44;86.30
56270;BME280;42176;43.240;27.880;2022-09-09T01:17:05;100364.59;;;17.38;86.45
56270;BME280;42176;43.240;27.880;2022-09-09T01:19:49;100382.25;;;17.43;86.74
56270;BME280;42176;43.240;27.880;2022-09-09T01:22:44;100380.41;;;17.44;86.60
56270;BME280;42176;43.240;27.880;2022-09-09T01:28:20;100385.19;;;17.37;87.41
56270;BME280;42176;43.240;27.880;2022-09-09T01:30:47;100376.47;;;17.32;87.84
56270;BME280;42176;43.240;27.880;2022-09-09T01:33:15;100386.13;;;17.36;87.34
56270;BME280;42176;43.240;27.880;2022-09-09T01:35:53;100381.72;;;17.35;86.85
56270;BME280;42176;43.240;27.880;2022-09-09T01:38:21;100370.06;;;17.36;87.70
56270;BME280;42176;43.240;27.880;2022-09-09T01:40:47;100374.59;;;17.34;87.83
56270;BME280;42176;43.240;27.880;2022-09-09T01:43:14;100375.69;;;17.30;88.00
56270;BME280;42176;43.240;27.880;2022-09-09T01:45:40;100379.31;;;17.29;88.08
56270;BME280;42176;43.240;27.880;2022-09-09T01:48:06;100368.59;;;17.29;88.99
56270;BME280;42176;43.240;27.880;2022-09-09T01:50:32;100376.63;;;17.29;89.07
56270;BME280;42176;43.240;27.880;2022-09-09T01:52:59;100372.94;;;17.31;89.87
56270;BME280;42176;43.240;27.880;2022-09-09T01:55:35;100370.50;;;17.27;90.57
56270;BME280;42176;43.240;27.880;2022-09-09T02:00:40;100368.88;;;17.23;90.45
56270;BME280;42176;43.240;27.880;2022-09-09T02:08:32;100388.56;;;17.22;92.04
56270;BME280;42176;43.240;27.880;2022-09-09T02:13:29;100384.97;;;17.23;91.93
56270;BME280;42176;43.240;27.880;2022-09-09T02:19:39;100363.78;;;17.16;92.59
56270;BME280;42176;43.240;27.880;2022-09-09T02:22:08;100382.16;;;17.26;92.32
56270;BME280;42176;43.240;27.880;2022-09-09T02:24:36;100370.75;;;17.20;92.77
56270;BME280;42176;43.240;27.880;2022-09-09T02:27:04;100380.75;;;17.17;92.81
56270;BME280;42176;43.240;27.880;2022-09-09T02:29:38;100384.88;;;17.24;92.19
56270;BME280;42176;43.240;27.880;2022-09-09T02:32:08;100385.63;;;17.28;92.95
56270;BME280;42176;43.240;27.880;2022-09-09T02:34:39;100383.88;;;17.27;93.07
56270;BME280;42176;43.240;27.880;2022-09-09T02:37:07;100375.97;;;17.24;92.50
56270;BME280;42176;43.240;27.880;2022-09-09T02:39:33;100379.75;;;17.19;93.05
56270;BME280;42176;43.240;27.880;2022-09-09T02:41:59;100379.75;;;17.19;93.12
56270;BME280;42176;43.240;27.880;2022-09-09T02:44:25;100374.50;;;17.16;93.52
56270;BME280;42176;43.240;27.880;2022-09-09T02:47:35;100386.69;;;17.24;94.25
56270;BME280;42176;43.240;27.880;2022-09-09T02:50:16;100376.25;;;17.17;93.70
56270;BME280;42176;43.240;27.880;2022-09-09T02:53:17;100379.88;;;17.16;94.46
56270;BME280;42176;43.240;27.880;2022-09-09T02:56:04;100379.22;;;17.11;95.01
56270;BME280;42176;43.240;27.880;2022-09-09T02:58:32;100379.88;;;17.16;94.33
56270;BME280;42176;43.240;27.880;2022-09-09T03:00:58;100374.81;;;17.10;94.42
56270;BME280;42176;43.240;27.880;2022-09-09T03:03:26;100383.50;;;17.15;95.12
56270;BME280;42176;43.240;27.880;2022-09-09T03:05:52;100372.94;;;17.12;94.98
56270;BME280;42176;43.240;27.880;2022-09-09T03:08:17;100378.00;;;17.18;95.05
56270;BME280;42176;43.240;27.880;2022-09-09T03:10:43;100381.47;;;17.20;95.51
56270;BME280;42176;43.240;27.880;2022-09-09T03:13:08;100374.47;;;17.18;94.44
56270;BME280;42176;43.240;27.880;2022-09-09T03:15:34;100379.88;;;17.16;95.15
56270;BME280;42176;43.240;27.880;2022-09-09T03:18:00;100376.38;;;17.14;95.69
56270;BME280;42176;43.240;27.880;2022-09-09T03:20:28;100383.50;;;17.15;96.30
56270;BME280;42176;43.240;27.880;2022-09-09T03:22:54;100385.19;;;17.18;95.98
56270;BME280;42176;43.240;27.880;2022-09-09T03:25:20;100386.03;;;17.18;95.96
56270;BME280;42176;43.240;27.880;2022-09-09T03:27:48;100382.50;;;17.18;95.12
56270;BME280;42176;43.240;27.880;2022-09-09T03:30:15;100385.09;;;17.19;95.95
56270;BME280;42176;43.240;27.880;2022-09-09T03:32:41;100375.63;;;17.12;95.80
56270;BME280;42176;43.240;27.880;2022-09-09T03:35:06;100380.81;;;17.15;94.99
56270;BME280;42176;43.240;27.880;2022-09-09T03:37:32;100389.88;;;17.13;94.60
56270;BME280;42176;43.240;27.880;2022-09-09T03:39:57;100384.41;;;17.14;94.95
56270;BME280;42176;43.240;27.880;2022-09-09T03:42:25;100381.75;;;17.14;95.30
56270;BME280;42176;43.240;27.880;2022-09-09T03:44:50;100386.97;;;17.17;95.69
56270;BME280;42176;43.240;27.880;2022-09-09T03:47:20;100385.91;;;17.22;95.80
56270;BME280;42176;43.240;27.880;2022-09-09T03:49:47;100383.22;;;17.22;96.10
56270;BME280;42176;43.240;27.880;2022-09-09T03:52:14;100387.63;;;17.23;95.20
56270;BME280;42176;43.240;27.880;2022-09-09T03:54:39;100390.19;;;17.26;95.02
56270;BME280;42176;43.240;27.880;2022-09-09T03:57:06;100390.91;;;17.29;94.44
56270;BME280;42176;43.240;27.880;2022-09-09T03:59:32;100380.84;;;17.34;95.74
56270;BME280;42176;43.240;27.880;2022-09-09T04:01:57;100378.00;;;17.38;96.52
56270;BME280;42176;43.240;27.880;2022-09-09T04:04:24;100377.94;;;17.39;95.99
56270;BME280;42176;43.240;27.880;2022-09-09T04:06:51;100376.13;;;17.40;94.33
56270;BME280;42176;43.240;27.880;2022-09-09T04:09:17;100383.81;;;17.47;94.01
56270;BME280;42176;43.240;27.880;2022-09-09T04:11:42;100391.75;;;17.87;92.03
56270;BME280;42176;43.240;27.880;2022-09-09T04:14:08;100379.84;;;18.66;88.01
56270;BME280;42176;43.240;27.880;2022-09-09T04:16:34;100381.78;;;19.31;83.83
56270;BME280;42176;43.240;27.880;2022-09-09T04:19:02;100389.91;;;19.96;80.41
56270;BME280;42176;43.240;27.880;2022-09-09T04:21:30;100375.66;;;20.56;77.04
56270;BME280;42176;43.240;27.880;2022-09-09T04:23:55;100382.69;;;21.18;75.02
56270;BME280;42176;43.240;27.880;2022-09-09T04:26:21;100379.28;;;21.72;70.71
56270;BME280;42176;43.240;27.880;2022-09-09T04:28:47;100368.81;;;22.23;67.71
56270;BME280;42176;43.240;27.880;2022-09-09T04:31:19;100383.44;;;22.86;65.11
56270;BME280;42176;43.240;27.880;2022-09-09T04:33:45;100386.69;;;23.43;62.90
56270;BME280;42176;43.240;27.880;2022-09-09T04:36:12;100374.47;;;23.75;60.61
56270;BME280;42176;43.240;27.880;2022-09-09T04:38:38;100396.53;;;24.18;59.06
56270;BME280;42176;43.240;27.880;2022-09-09T04:41:05;100397.59;;;23.92;60.46
56270;BME280;42176;43.240;27.880;2022-09-09T04:43:30;100394.97;;;24.03;60.30
56270;BME280;42176;43.240;27.880;2022-09-09T04:45:56;100385.75;;;24.90;57.26
56270;BME280;42176;43.240;27.880;2022-09-09T04:48:22;100385.03;;;25.56;54.42
56270;BME280;42176;43.240;27.880;2022-09-09T04:51:04;100388.16;;;26.07;52.74
56270;BME280;42176;43.240;27.880;2022-09-09T04:53:30;100380.66;;;26.64;50.73
56270;BME280;42176;43.240;27.880;2022-09-09T04:56:03;100381.22;;;27.10;49.28
56270;BME280;42176;43.240;27.880;2022-09-09T04:58:29;100381.31;;;27.61;48.48
56270;BME280;42176;43.240;27.880;2022-09-09T05:00:55;100378.44;;;28.13;46.80
56270;BME280;42176;43.240;27.880;2022-09-09T05:03:27;100382.75;;;28.75;45.94
56270;BME280;42176;43.240;27.880;2022-09-09T05:05:52;100376.56;;;29.40;44.46
56270;BME280;42176;43.240;27.880;2022-09-09T05:08:18;100387.34;;;30.15;43.81
56270;BME280;42176;43.240;27.880;2022-09-09T05:10:43;100383.09;;;30.75;42.03
56270;BME280;42176;43.240;27.880;2022-09-09T05:13:09;100367.91;;;31.34;39.55
56270;BME280;42176;43.240;27.880;2022-09-09T05:15:34;100386.81;;;31.96;40.44
56270;BME280;42176;43.240;27.880;2022-09-09T05:18:01;100393.75;;;32.33;38.01
56270;BME280;42176;43.240;27.880;2022-09-09T05:20:28;100380.75;;;32.85;37.33
56270;BME280;42176;43.240;27.880;2022-09-09T05:22:54;100375.91;;;32.95;36.92
56270;BME280;42176;43.240;27.880;2022-09-09T05:25:20;100382.34;;;33.19;35.69
56270;BME280;42176;43.240;27.880;2022-09-09T05:27:47;100376.53;;;33.22;35.60
56270;BME280;42176;43.240;27.880;2022-09-09T05:30:12;100376.91;;;33.03;36.05
56270;BME280;42176;43.240;27.880;2022-09-09T05:32:38;100359.53;;;33.19;35.47
56270;BME280;42176;43.240;27.880;2022-09-09T05:35:04;100369.50;;;31.96;37.72
56270;BME280;42176;43.240;27.880;2022-09-09T05:37:30;100367.97;;;32.01;37.74
56270;BME280;42176;43.240;27.880;2022-09-09T05:39:56;100376.22;;;32.18;37.24
56270;BME280;42176;43.240;27.880;2022-09-09T05:42:21;100364.53;;;33.15;36.54
56270;BME280;42176;43.240;27.880;2022-09-09T05:44:47;100364.00;;;33.68;35.64
56270;BME280;42176;43.240;27.880;2022-09-09T05:47:12;100369.69;;;33.98;34.20
56270;BME280;42176;43.240;27.880;2022-09-09T05:49:38;100363.91;;;33.84;35.31
56270;BME280;42176;43.240;27.880;2022-09-09T05:52:03;100357.84;;;34.21;34.25
56270;BME280;42176;43.240;27.880;2022-09-09T05:54:29;100353.44;;;33.48;35.02
56270;BME280;42176;43.240;27.880;2022-09-09T05:56:55;100356.75;;;33.27;35.74
56270;BME280;42176;43.240;27.880;2022-09-09T05:59:20;100366.25;;;33.96;34.60
56270;BME280;42176;43.240;27.880;2022-09-09T06:01:48;100370.13;;;34.33;33.79
56270;BME280;42176;43.240;27.880;2022-09-09T06:04:13;100370.72;;;35.05;32.92
56270;BME280;42176;43.240;27.880;2022-09-09T06:06:39;100363.91;;;32.88;36.34
56270;BME280;42176;43.240;27.880;2022-09-09T06:09:06;100368.66;;;33.67;35.32
56270;BME280;42176;43.240;27.880;2022-09-09T06:11:36;100364.16;;;34.68;33.63
56270;BME280;42176;43.240;27.880;2022-09-09T06:14:02;100349.88;;;35.62;32.26
56270;BME280;42176;43.240;27.880;2022-09-09T06:16:29;100359.97;;;35.25;32.83
56270;BME280;42176;43.240;27.880;2022-09-09T06:18:56;100362.75;;;33.47;35.29
56270;BME280;42176;43.240;27.880;2022-09-09T06:21:26;100362.13;;;33.60;35.52
56270;BME280;42176;43.240;27.880;2022-09-09T06:23:52;100370.63;;;33.82;35.34
56270;BME280;42176;43.240;27.880;2022-09-09T06:28:49;100368.66;;;33.03;36.59
56270;BME280;42176;43.240;27.880;2022-09-09T06:31:17;100372.78;;;33.95;35.45
56270;BME280;42176;43.240;27.880;2022-09-09T06:33:48;100361.25;;;34.69;33.72
56270;BME280;42176;43.240;27.880;2022-09-09T06:36:22;100362.22;;;34.91;33.07
56270;BME280;42176;43.240;27.880;2022-09-09T06:38:48;100370.50;;;34.53;33.05
56270;BME280;42176;43.240;27.880;2022-09-09T06:41:16;100388.09;;;34.21;33.28
56270;BME280;42176;43.240;27.880;2022-09-09T06:43:42;100378.31;;;32.99;34.88
56270;BME280;42176;43.240;27.880;2022-09-09T06:46:15;100387.69;;;33.69;34.92
56270;BME280;42176;43.240;27.880;2022-09-09T06:48:42;100386.41;;;33.48;34.91
56270;BME280;42176;43.240;27.880;2022-09-09T06:51:14;100393.00;;;33.22;35.39
56270;BME280;42176;43.240;27.880;2022-09-09T06:53:41;100393.53;;;33.66;34.83
56270;BME280;42176;43.240;27.880;2022-09-09T06:58:40;100385.34;;;32.76;36.63
56270;BME280;42176;43.240;27.880;2022-09-09T07:01:16;100386.22;;;32.60;36.17
56270;BME280;42176;43.240;27.880;2022-09-09T07:03:46;100384.50;;;33.01;36.87
56270;BME280;42176;43.240;27.880;2022-09-09T07:06:24;100381.72;;;32.18;38.69
56270;BME280;42176;43.240;27.880;2022-09-09T07:09:01;100383.97;;;32.97;37.84
56270;BME280;42176;43.240;27.880;2022-09-09T07:11:31;100390.56;;;33.44;37.03
56270;BME280;42176;43.240;27.880;2022-09-09T07:13:58;100403.19;;;31.80;40.40
56270;BME280;42176;43.240;27.880;2022-09-09T07:16:24;100405.19;;;32.20;39.04
56270;BME280;42176;43.240;27.880;2022-09-09T07:18:51;100395.25;;;31.68;39.50
56270;BME280;42176;43.240;27.880;2022-09-09T07:21:18;100389.72;;;31.95;40.56
56270;BME280;42176;43.240;27.880;2022-09-09T07:23:44;100384.31;;;31.68;40.98
56270;BME280;42176;43.240;27.880;2022-09-09T07:26:12;100399.06;;;30.62;42.91
56270;BME280;42176;43.240;27.880;2022-09-09T07:28:38;100389.47;;;32.64;39.33
56270;BME280;42176;43.240;27.880;2022-09-09T07:31:05;100388.78;;;32.54;38.54
56270;BME280;42176;43.240;27.880;2022-09-09T07:33:33;100392.13;;;32.06;39.13
56270;BME280;42176;43.240;27.880;2022-09-09T07:38:29;100390.69;;;31.77;39.84
56270;BME280;42176;43.240;27.880;2022-09-09T07:41:06;100403.78;;;30.96;41.38
56270;BME280;42176;43.240;27.880;2022-09-09T07:43:32;100400.63;;;31.78;40.61
56270;BME280;42176;43.240;27.880;2022-09-09T07:45:59;100404.03;;;32.40;39.79
56270;BME280;42176;43.240;27.880;2022-09-09T07:48:27;100404.25;;;31.87;41.37
56270;BME280;42176;43.240;27.880;2022-09-09T07:50:52;100396.50;;;32.42;40.29
56270;BME280;42176;43.240;27.880;2022-09-09T07:53:18;100391.69;;;31.68;38.53
56270;BME280;42176;43.240;27.880;2022-09-09T07:55:45;100395.75;;;32.15;38.14
56270;BME280;42176;43.240;27.880;2022-09-09T07:58:10;100399.84;;;32.11;35.62
56270;BME280;42176;43.240;27.880;2022-09-09T08:00:36;100385.47;;;31.23;37.09
56270;BME280;42176;43.240;27.880;2022-09-09T08:03:01;100383.44;;;31.25;36.56
56270;BME280;42176;43.240;27.880;2022-09-09T08:05:27;100378.38;;;31.81;36.06
56270;BME280;42176;43.240;27.880;2022-09-09T08:07:52;100398.72;;;32.30;33.39
56270;BME280;42176;43.240;27.880;2022-09-09T08:10:18;100389.66;;;32.46;31.93
56270;BME280;42176;43.240;27.880;2022-09-09T08:12:43;100384.31;;;31.68;33.15
56270;BME280;42176;43.240;27.880;2022-09-09T08:15:09;100393.75;;;32.42;32.25
56270;BME280;42176;43.240;27.880;2022-09-09T08:17:34;100389.66;;;32.38;31.57
56270;BME280;42176;43.240;27.880;2022-09-09T08:20:00;100389.28;;;32.57;30.20
56270;BME280;42176;43.240;27.880;2022-09-09T08:22:30;100369.91;;;31.58;32.44
56270;BME280;42176;43.240;27.880;2022-09-09T08:24:56;100369.78;;;31.33;32.71
56270;BME280;42176;43.240;27.880;2022-09-09T08:27:21;100377.50;;;30.59;32.90
56270;BME280;42176;43.240;27.880;2022-09-09T08:29:47;100361.13;;;32.06;31.25
56270;BME280;42176;43.240;27.880;2022-09-09T08:32:13;100366.91;;;31.94;30.46
56270;BME280;42176;43.240;27.880;2022-09-09T08:34:38;100361.81;;;31.91;30.60
56270;BME280;42176;43.240;27.880;2022-09-09T08:37:04;100346.44;;;32.48;30.71
56270;BME280;42176;43.240;27.880;2022-09-09T08:39:29;100358.13;;;30.34;35.05
56270;BME280;42176;43.240;27.880;2022-09-09T08:42:23;100355.34;;;29.14;39.87
56270;BME280;42176;43.240;27.880;2022-09-09T08:45:06;100356.50;;;29.21;40.66
56270;BME280;42176;43.240;27.880;2022-09-09T08:50:37;100360.94;;;29.60;40.58
56270;BME280;42176;43.240;27.880;2022-09-09T08:53:12;100316.66;;;29.28;42.57
56270;BME280;42176;43.240;27.880;2022-09-09T08:55:51;100351.22;;;29.10;43.69
56270;BME280;42176;43.240;27.880;2022-09-09T08:58:31;100357.72;;;27.71;46.83
56270;BME280;42176;43.240;27.880;2022-09-09T09:11:53;100360.88;;;25.19;59.32
56270;BME280;42176;43.240;27.880;2022-09-09T09:14:24;100362.50;;;24.39;60.63
56270;BME280;42176;43.240;27.880;2022-09-09T09:19:29;100335.66;;;24.00;61.42
56270;BME280;42176;43.240;27.880;2022-09-09T09:24:56;100355.44;;;23.76;65.50
56270;BME280;42176;43.240;27.880;2022-09-09T09:27:34;100355.00;;;23.82;65.07
56270;BME280;42176;43.240;27.880;2022-09-09T09:30:12;100356.59;;;23.98;66.61
56270;BME280;42176;43.240;27.880;2022-09-09T09:32:40;100367.94;;;23.90;65.63
56270;BME280;42176;43.240;27.880;2022-09-09T09:35:13;100362.72;;;24.00;64.87
56270;BME280;42176;43.240;27.880;2022-09-09T09:37:40;100366.44;;;23.86;66.92
56270;BME280;42176;43.240;27.880;2022-09-09T09:40:19;100370.13;;;23.98;63.51
56270;BME280;42176;43.240;27.880;2022-09-09T09:42:54;100368.38;;;23.97;64.57
56270;BME280;42176;43.240;27.880;2022-09-09T09:45:28;100370.75;;;24.01;64.30
56270;BME280;42176;43.240;27.880;2022-09-09T09:47:58;100378.13;;;23.99;63.19
56270;BME280;42176;43.240;27.880;2022-09-09T09:50:24;100371.28;;;23.94;66.45
56270;BME280;42176;43.240;27.880;2022-09-09T09:53:02;100346.47;;;24.00;65.93
56270;BME280;42176;43.240;27.880;2022-09-09T09:55:30;100351.28;;;23.83;64.68
56270;BME280;42176;43.240;27.880;2022-09-09T09:58:15;100331.59;;;23.81;66.07
56270;BME280;42176;43.240;27.880;2022-09-09T10:00:49;100348.28;;;23.75;68.04
56270;BME280;42176;43.240;27.880;2022-09-09T10:03:26;100349.09;;;24.01;65.44
56270;BME280;42176;43.240;27.880;2022-09-09T10:05:52;100357.75;;;23.94;67.22
56270;BME280;42176;43.240;27.880;2022-09-09T10:08:18;100347.31;;;23.76;67.39
56270;BME280;42176;43.240;27.880;2022-09-09T10:19:16;100340.22;;;23.99;66.58
56270;BME280;42176;43.240;27.880;2022-09-09T10:30:17;100324.09;;;23.61;66.73
56270;BME280;42176;43.240;27.880;2022-09-09T10:40:32;100336.44;;;23.65;69.18
56270;BME280;42176;43.240;27.880;2022-09-09T10:46:23;100350.84;;;23.52;67.07
56270;BME280;42176;43.240;27.880;2022-09-09T10:57:35;100346.47;;;23.25;74.21
56270;BME280;42176;43.240;27.880;2022-09-09T11:00:23;100343.44;;;23.17;76.36
56270;BME280;42176;43.240;27.880;2022-09-09T11:03:17;100342.13;;;23.36;75.29
56270;BME280;42176;43.240;27.880;2022-09-09T11:05:47;100346.41;;;23.51;73.81
56270;BME280;42176;43.240;27.880;2022-09-09T11:08:20;100347.25;;;23.65;73.33
56270;BME280;42176;43.240;27.880;2022-09-09T11:13:42;100341.59;;;23.68;71.97
56270;BME280;42176;43.240;27.880;2022-09-09T11:16:22;100345.13;;;23.44;69.73
56270;BME280;42176;43.240;27.880;2022-09-09T11:18:59;100358.13;;;23.39;72.85
56270;BME280;42176;43.240;27.880;2022-09-09T11:24:02;100341.22;;;23.85;73.81
56270;BME280;42176;43.240;27.880;2022-09-09T11:27:38;100328.59;;;23.73;71.94
56270;BME280;42176;43.240;27.880;2022-09-09T11:35:44;100330.53;;;23.71;73.00
56270;BME280;42176;43.240;27.880;2022-09-09T11:38:27;100307.38;;;23.67;72.80
56270;BME280;42176;43.240;27.880;2022-09-09T11:40:57;100318.13;;;23.68;72.02
56270;BME280;42176;43.240;27.880;2022-09-09T11:43:38;100323.50;;;23.44;75.80
56270;BME280;42176;43.240;27.880;2022-09-09T11:46:05;100325.72;;;23.26;76.19
56270;BME280;42176;43.240;27.880;2022-09-09T11:48:44;100336.00;;;23.21;76.65
56270;BME280;42176;43.240;27.880;2022-09-09T11:51:29;100329.50;;;22.98;79.16
56270;BME280;42176;43.240;27.880;2022-09-09T11:53:59;100321.59;;;23.20;78.65
56270;BME280;42176;43.240;27.880;2022-09-09T11:56:34;100316.59;;;23.14;78.60
56270;BME280;42176;43.240;27.880;2022-09-09T11:59:29;100318.34;;;23.15;78.57
56270;BME280;42176;43.240;27.880;2022-09-09T12:02:01;100318.13;;;23.18;77.97
56270;BME280;42176;43.240;27.880;2022-09-09T12:04:30;100310.78;;;23.20;78.88
56270;BME280;42176;43.240;27.880;2022-09-09T12:07:05;100302.97;;;23.29;79.70
56270;BME280;42176;43.240;27.880;2022-09-09T12:09:58;100297.34;;;23.32;79.61
56270;BME280;42176;43.240;27.880;2022-09-09T12:12:36;100306.09;;;23.35;78.42
56270;BME280;42176;43.240;27.880;2022-09-09T12:17:45;100295.09;;;23.25;78.77
56270;BME280;42176;43.240;27.880;2022-09-09T12:20:26;100298.22;;;23.19;79.70
56270;BME280;42176;43.240;27.880;2022-09-09T12:28:20;100294.97;;;23.14;81.32
56270;BME280;42176;43.240;27.880;2022-09-09T12:31:05;100292.16;;;23.29;78.45
56270;BME280;42176;43.240;27.880;2022-09-09T12:33:37;100290.28;;;23.42;76.32
56270;BME280;42176;43.240;27.880;2022-09-09T12:36:12;100293.47;;;23.23;76.08
56270;BME280;42176;43.240;27.880;2022-09-09T12:38:40;100287.41;;;23.19;77.84
56270;BME280;42176;43.240;27.880;2022-09-09T12:41:15;100284.13;;;23.40;77.27
56270;BME280;42176;43.240;27.880;2022-09-09T12:43:44;100275.06;;;23.28;77.11
56270;BME280;42176;43.240;27.880;2022-09-09T12:46:38;100274.81;;;23.44;77.35
56270;BME280;42176;43.240;27.880;2022-09-09T12:49:02;100267.84;;;23.53;77.25
56270;BME280;42176;43.240;27.880;2022-09-09T12:51:30;100265.78;;;23.19;76.60
56270;BME280;42176;43.240;27.880;2022-09-09T12:53:58;100282.84;;;23.20;77.55
56270;BME280;42176;43.240;27.880;2022-09-09T12:56:26;100266.97;;;23.52;77.60
56270;BME280;42176;43.240;27.880;2022-09-09T12:58:53;100266.88;;;23.54;77.62
56270;BME280;42176;43.240;27.880;2022-09-09T13:01:27;100269.34;;;23.57;76.52
56270;BME280;42176;43.240;27.880;2022-09-09T13:03:53;100265.34;;;23.25;76.77
56270;BME280;42176;43.240;27.880;2022-09-09T13:06:27;100275.72;;;23.19;78.37
56270;BME280;42176;43.240;27.880;2022-09-09T13:08:54;100271.63;;;23.13;79.82
56270;BME280;42176;43.240;27.880;2022-09-09T13:11:25;100264.69;;;23.09;79.98
56270;BME280;42176;43.240;27.880;2022-09-09T13:13:56;100258.97;;;23.26;77.83
56270;BME280;42176;43.240;27.880;2022-09-09T13:16:26;100263.50;;;23.13;78.76
56270;BME280;42176;43.240;27.880;2022-09-09T13:19:00;100268.38;;;23.34;76.79
56270;BME280;42176;43.240;27.880;2022-09-09T13:21:37;100260.75;;;23.39;75.97
56270;BME280;42176;43.240;27.880;2022-09-09T13:24:05;100252.56;;;23.27;77.05
56270;BME280;42176;43.240;27.880;2022-09-09T13:26:33;100258.63;;;23.18;78.39
56270;BME280;42176;43.240;27.880;2022-09-09T13:29:18;100254.84;;;23.34;77.34
56270;BME280;42176;43.240;27.880;2022-09-09T13:31:44;100250.59;;;23.42;77.93
56270;BME280;42176;43.240;27.880;2022-09-09T13:34:13;100254.09;;;23.32;78.69
56270;BME280;42176;43.240;27.880;2022-09-09T13:36:40;100253.03;;;23.46;77.96
56270;BME280;42176;43.240;27.880;2022-09-09T13:39:15;100251.38;;;23.32;78.96
56270;BME280;42176;43.240;27.880;2022-09-09T13:41:43;100249.56;;;23.19;80.54
56270;BME280;42176;43.240;27.880;2022-09-09T13:44:21;100243.28;;;23.06;80.27
56270;BME280;42176;43.240;27.880;2022-09-09T13:47:03;100237.72;;;22.96;80.62
56270;BME280;42176;43.240;27.880;2022-09-09T13:49:30;100243.97;;;22.96;81.76
56270;BME280;42176;43.240;27.880;2022-09-09T13:52:09;100251.03;;;22.86;81.93
56270;BME280;42176;43.240;27.880;2022-09-09T13:54:35;100270.03;;;22.98;81.41
56270;BME280;42176;43.240;27.880;2022-09-09T13:57:00;100250.69;;;23.04;80.67
56270;BME280;42176;43.240;27.880;2022-09-09T13:59:26;100255.22;;;22.90;81.04
56270;BME280;42176;43.240;27.880;2022-09-09T14:01:52;100256.44;;;22.73;81.50
56270;BME280;42176;43.240;27.880;2022-09-09T14:04:19;100258.47;;;22.83;81.55
56270;BME280;42176;43.240;27.880;2022-09-09T14:06:48;100238.63;;;22.71;82.27
56270;BME280;42176;43.240;27.880;2022-09-09T14:09:15;100239.25;;;22.87;80.95
56270;BME280;42176;43.240;27.880;2022-09-09T14:11:42;100240.56;;;22.69;80.64
56270;BME280;42176;43.240;27.880;2022-09-09T14:14:08;100233.00;;;22.61;83.50
56270;BME280;42176;43.240;27.880;2022-09-09T14:16:33;100228.16;;;22.53;82.22
56270;BME280;42176;43.240;27.880;2022-09-09T14:18:59;100229.41;;;22.60;80.72
56270;BME280;42176;43.240;27.880;2022-09-09T14:21:25;100228.66;;;22.58;81.92
56270;BME280;42176;43.240;27.880;2022-09-09T14:23:51;100210.09;;;22.54;83.28
56270;BME280;42176;43.240;27.880;2022-09-09T14:26:21;100210.28;;;22.63;82.02
56270;BME280;42176;43.240;27.880;2022-09-09T14:28:47;100213.53;;;22.69;81.09
56270;BME280;42176;43.240;27.880;2022-09-09T14:31:13;100208.13;;;22.69;81.46
56270;BME280;42176;43.240;27.880;2022-09-09T14:33:39;100203.38;;;22.59;82.39
56270;BME280;42176;43.240;27.880;2022-09-09T14:36:05;100203.84;;;22.53;81.25
56270;BME280;42176;43.240;27.880;2022-09-09T14:38:36;100211.28;;;22.62;81.23
56270;BME280;42176;43.240;27.880;2022-09-09T14:41:14;100212.91;;;22.52;78.74
56270;BME280;42176;43.240;27.880;2022-09-09T14:43:42;100211.19;;;22.51;80.23
56270;BME280;42176;43.240;27.880;2022-09-09T14:46:09;100215.28;;;22.44;81.69
56270;BME280;42176;43.240;27.880;2022-09-09T14:48:35;100213.75;;;22.40;81.83
56270;BME280;42176;43.240;27.880;2022-09-09T14:51:21;100219.16;;;22.53;80.53
56270;BME280;42176;43.240;27.880;2022-09-09T14:53:48;100218.94;;;22.69;79.98
56270;BME280;42176;43.240;27.880;2022-09-09T14:56:18;100218.41;;;22.63;80.33
56270;BME280;42176;43.240;27.880;2022-09-09T14:58:44;100219.63;;;22.46;82.45
56270;BME280;42176;43.240;27.880;2022-09-09T15:01:15;100216.78;;;22.48;82.69
56270;BME280;42176;43.240;27.880;2022-09-09T15:03:43;100206.41;;;22.55;81.62
56270;BME280;42176;43.240;27.880;2022-09-09T15:06:14;100203.19;;;22.49;82.47
56270;BME280;42176;43.240;27.880;2022-09-09T15:08:42;100197.34;;;22.43;82.71